This is the latest recevied weather packets stored in our database for station/object K1KOF. If no packets are shown the sender has not sent any weather packets the latest 10 day(s).
| Time | Temp. | Humidity | Pressure | Rain* | Wind** | Luminosity | Snow |
|---|---|---|---|---|---|---|---|
| 1777753097 | 17.78° C | 77% | 1021.9 hPa | 0 mm | - | 695 W/m² | - |
| 1777752792 | 16.67° C | 76% | 1021.9 hPa | 0 mm | - | 561 W/m² | - |
| 1777752489 | 16.67° C | 78% | 1022 hPa | 0 mm | - | 648 W/m² | - |
| 1777752184 | 17.22° C | 76% | 1022 hPa | 0 mm | - | 519 W/m² | - |
| 1777751883 | 16.67° C | 76% | 1022.3 hPa | 0 mm | - | 511 W/m² | - |
| 1777751579 | 17.78° C | 75% | 1022.3 hPa | 0 mm | - | 159 W/m² | - |
| 1777751276 | 16.67° C | 78% | 1022.3 hPa | 0 mm | - | 690 W/m² | - |
| 1777750973 | 15.56° C | 81% | 1022.6 hPa | 0 mm | - | 639 W/m² | - |
| 1777750669 | 16.67° C | 79% | 1022.6 hPa | 0 mm | - | 215 W/m² | - |
| 1777750366 | 16.67° C | 78% | 1022.7 hPa | 0 mm | - | 614 W/m² | - |
| 1777750066 | 17.22° C | 77% | 1022.7 hPa | 0 mm | - | 234 W/m² | - |
| 1777749764 | 16.67° C | 79% | 1022.8 hPa | 0 mm | - | 713 W/m² | - |
| 1777749461 | 16.11° C | 83% | 1022.8 hPa | 0 mm | - | 492 W/m² | - |
| 1777749159 | 16.11° C | 80% | 1023 hPa | 0 mm | - | 333 W/m² | - |
| 1777748855 | 15.56° C | 81% | 1022.9 hPa | 0 mm | - | 480 W/m² | - |
| 1777748553 | 16.11° C | 83% | 1023 hPa | 0 mm | - | 394 W/m² | - |
| 1777748253 | 15.56° C | 84% | 1023.1 hPa | 0 mm | - | 329 W/m² | - |
| 1777747950 | 15.56° C | 86% | 1023.1 hPa | 0 mm | - | 246 W/m² | - |
| 1777747646 | 15° C | 85% | 1023.1 hPa | 0 mm | - | 154 W/m² | - |
| 1777747341 | 15° C | 85% | 1023.2 hPa | 0 mm | - | 170 W/m² | - |
| 1777747039 | 15° C | 86% | 1023.3 hPa | 0 mm | - | 206 W/m² | - |
| 1777746734 | 15° C | 86% | 1023.4 hPa | 0 mm | - | 226 W/m² | - |
| 1777746430 | 15° C | 86% | 1023.6 hPa | 0 mm | - | 228 W/m² | - |
| 1777746125 | 14.44° C | 87% | 1023.2 hPa | 0 mm | - | 184 W/m² | - |
| 1777745823 | 14.44° C | 87% | 1023.2 hPa | 0 mm | - | 201 W/m² | - |
* Rain latest hour (hover to see other rain measurements)
** Current wind speed in m/s (hover to see current wind gust speed)